Edgeworth, Pennsylvania
Current Conditions -  °F | °C
As of 10:51 PM on Wednesday 28 Jan 2015 (Local Time) from KPIT Reporting Station
Broken Clouds Broken Clouds  
Wind Chill: -13°   Ceiling: 22000
Heat Index: -9°   Visibility: 9mi
Dew Point: -12°   Wind: 5mph
Humidity: 77%   Direction: 160°SSE
Pressure: 30.26"   Gusts: NA
Location:  40.5741°N, 80.1457°W
Report Text: KPIT 290351Z 16004KT 9SM FEW130 SCT180 BKN220 M09/M12 A3026 RMK AO2 SLP278 T10891122
Loading
Personal Weather Stations






























Interactive Weather Map New forecast layout! Learn more

10-Day Weather Forecast

Advertisements
Track Severe Weather on mobile